GCLP/LPA METAR and TAF weather

Enter ICAO airport designator
Station Type Date Time Source
GCLP METAR 2021/10/20 06:00 UTC NOAA

GCLP 200600Z 36013KT CAVOK 24/08 Q1018 NOSIG


Station Type Date Time Source
GCLP Decoded METAR 2021/10/20 06:00 UTC NOAA

Gran Canaria - Canary Islands, Spain (GCLP) 27-56N 015-23W 47M
Oct 20, 2021 - 02:00 AM EDT / 2021.10.20 0600 UTC
Wind: from the N (360 degrees) at 15 MPH (13 KT):0
Visibility: greater than 7 mile(s):0
Temperature: 75 F (24 C)
Dew Point: 46 F (8 C)
Relative Humidity: 35%
Pressure (altimeter): 30.06 in. Hg (1018 hPa)
ob: GCLP 200600Z 36013KT CAVOK 24/08 Q1018 NOSIG
cycle: 6

Station Type Date Time Source
GCLP TAF 2021/10/20 03:27 UTC NOAA

TAF GCLP 200200Z 2003/2103 01013KT CAVOK TX27/2014Z TN21/2006Z

Example: see airport list